Hlavní strana
METAR-TAF:

METAR-TAF

Letiště :

Yaoundé, Kamerun

zeměpisná šířka: 03-50N, zeměpisná délka: 011-31E, výška: 751 m

Aktuální stav počasí

Zpráva byla vytvořena před 45 minutami, v 06:00 UTC
Teplota 20°C
Vlhkost vzduchu 100%
Tlak 1019 hPa
Viditelnost: 6000 m
Oblačno až skoro zataženo ve výšce 600 ft

METAR: FKYS 150600Z /////KT 6000 BKN006 20/20 Q1019 NOSIG

Čas: 07:45 (06:45 UTC)

Předpověď počasí

Zpráva byla vytvořena před 1 hodinou a 45 minutami, v 05:00 UTC
Předpověď platná od 15 v 06 UTC do 16 v 06 UTC
vítr z různých směrů 3 kt
Viditelnost: 6000 m
Oblačno až skoro zataženo ve výšce 600 ft
Dočasný
od 15 v 06 UTC do 15 v 08 UTC
Viditelnost: 4000 m
kouřmo
Změna
od 15 v 08 UTC do 15 v 10 UTC
Polojasno ve výšce 1600 ft

TAF: FKYS 150500Z 1506/1606 VRB03KT 6000 BKN006 TEMPO 1506/1508 4000 BR BECMG 1508/1510 SCT016

Stav a předpovědi počasí z více než 4 000 letišť (zprávy METAR a TAF).

Červené a žluté tečky na mapě představují dostupné meteorologické stanice.

Když kurzor umístíte na tečku, zobrazí se název stanice.

Pak kliknutím zobrazíte stav a předpověď počasí.

Chcete-li změnit mapu, kliknutím na zelené tlačítko se znaménkem +mapu přiblížíte, kliknutím na zelené tlačítko se znaménkem – mapu oddálíte a kliknutím na zelené šipky přejdete na sousední mapy.


METAR-TAF: